Погода Хикипиласна неделю

Чьяпас, Мексика

03 - 09 марта
  • 03марта
    Сегодня
    +21°
    +34°
    Ясно и безоблачно
    ВремяПогодаТемператураВлажностьДавлениеВетер, м/сВероятность осадков
    00:00Ясно и безоблачно+24°C91 %717 мм0.6 м/с2 %
    03:00Облачно с прояснениями+22°C99 %716 мм0.5 м/с2 %
    06:00Облачно с прояснениями+21°C98 %716 мм0.7 м/с2 %
    09:00Ясно и безоблачно+26°C66 %718 мм1.2 м/с2 %
    12:00Ясно и безоблачно+33°C36 %717 мм4.9 м/с2 %
    15:00Ясно и безоблачно+33°C35 %715 мм5.5 м/с6 %
    18:00Ясно и безоблачно+30°C47 %714 мм4.6 м/с4 %
    21:00Ясно и безоблачно+25°C64 %716 мм1.9 м/с2 %
  • 04марта
    Понедельник
    +20°
    +33°
    Небольшая облачность
    ВремяПогодаТемператураВлажностьДавлениеВетер, м/сВероятность осадков
    00:00Ясно и безоблачно+24°C68 %716 мм0.4 м/с2 %
    03:00Ясно и безоблачно+23°C72 %714 мм1.3 м/с2 %
    06:00Ясно и безоблачно+22°C74 %715 мм1.5 м/с2 %
    09:00Ясно и безоблачно+27°C51 %716 мм3.4 м/с2 %
    12:00Небольшая облачность+32°C36 %716 мм5.7 м/с2 %
    15:00Небольшая облачность+32°C38 %713 мм6.2 м/с2 %
    18:00Ясно и безоблачно+29°C52 %714 мм4.9 м/с2 %
    21:00Ясно и безоблачно+25°C72 %715 мм2.2 м/с1 %
  • 05марта
    Вторник
    +19°
    +34°
    Ясно и безоблачно
    ВремяПогодаТемператураВлажностьДавлениеВетер, м/сВероятность осадков
    00:00Ясно и безоблачно+24°C84 %715 мм0.9 м/с2 %
    03:00Ясно и безоблачно+22°C87 %714 мм1.1 м/с2 %
    06:00Ясно и безоблачно+21°C87 %714 мм1.0 м/с2 %
    09:00Ясно и безоблачно+27°C52 %716 мм3.3 м/с2 %
    12:00Ясно и безоблачно+32°C39 %715 мм5.9 м/с2 %
    15:00Ясно и безоблачно+34°C37 %713 мм5.7 м/с3 %
    18:00Ясно и безоблачно+30°C51 %713 мм4.5 м/с2 %
    21:00Ясно и безоблачно+25°C76 %715 мм1.2 м/с2 %
  • 06марта
    Среда
    +20°
    +36°
    Ясно и безоблачно
    ВремяПогодаТемператураВлажностьДавлениеВетер, м/сВероятность осадков
    00:00Ясно и безоблачно+24°C85 %715 мм0.4 м/с2 %
    03:00Ясно и безоблачно+22°C92 %713 мм0.6 м/с2 %
    06:00Ясно и безоблачно+20°C91 %714 мм0.7 м/с2 %
    09:00Ясно и безоблачно+25°C54 %715 мм0.5 м/с2 %
    12:00Ясно и безоблачно+34°C29 %715 мм1.9 м/с4 %
    15:00Ясно и безоблачно+35°C35 %713 мм5.0 м/с24 %
    18:00Практически безоблачно+31°C54 %714 мм2.3 м/с27 %
    21:00Ясно и безоблачно+26°C72 %715 мм1.8 м/с7 %
  • 07марта
    Четверг
    +21°
    +36°
    Ясно и безоблачно
    ВремяПогодаТемператураВлажностьДавлениеВетер, м/сВероятность осадков
    00:00Ясно и безоблачно+24°C87 %715 мм0.8 м/с2 %
    03:00Ясно и безоблачно+23°C92 %714 мм0.4 м/с2 %
    06:00Ясно и безоблачно+21°C93 %714 мм0.6 м/с2 %
    09:00Ясно и безоблачно+26°C51 %716 мм0.9 м/с2 %
    12:00Ясно и безоблачно+35°C27 %715 мм4.3 м/с2 %
    15:00Ясно и безоблачно+35°C35 %713 мм6.5 м/с12 %
    18:00Ясно и безоблачно+29°C54 %714 мм4.7 м/с9 %
    21:00Ясно и безоблачно+25°C77 %715 мм1.9 м/с2 %
Мы используем cookies
Соглашаюсь